createdAt,value
2023-05-14T00:00:54.598Z,108.57
2023-05-14T00:03:21.751Z,111.05
2023-05-14T00:05:48.765Z,98.95
2023-05-14T00:08:15.726Z,120.40
2023-05-14T00:10:42.768Z,110.88
2023-05-14T00:13:09.787Z,114.50
2023-05-14T00:15:36.980Z,112.93
2023-05-14T00:18:04.038Z,107.20
2023-05-14T00:20:31.149Z,101.97
2023-05-14T00:22:58.018Z,103.95
2023-05-14T00:25:25.094Z,114.00
2023-05-14T00:27:52.983Z,126.47
2023-05-14T00:30:19.778Z,119.15
2023-05-14T00:32:46.659Z,130.88
2023-05-14T00:35:13.714Z,112.97
2023-05-14T00:37:40.774Z,112.97
2023-05-14T00:40:08.712Z,110.57
2023-05-14T00:42:35.691Z,119.07
2023-05-14T00:45:02.708Z,113.88
2023-05-14T00:47:29.837Z,115.60
2023-05-14T00:49:56.790Z,120.15
2023-05-14T00:52:23.592Z,114.78
2023-05-14T00:54:50.805Z,126.85
2023-05-14T00:57:19.866Z,116.85
2023-05-14T00:59:46.659Z,120.10
2023-05-14T01:02:13.725Z,117.45
2023-05-14T01:04:41.026Z,121.53
2023-05-14T01:07:31.353Z,110.47
2023-05-14T01:10:43.027Z,115.07
2023-05-14T01:13:57.603Z,117.35
2023-05-14T01:16:27.449Z,120.28
2023-05-14T01:21:42.761Z,121.90
2023-05-14T01:24:09.866Z,128.48
2023-05-14T01:26:37.404Z,128.30
2023-05-14T01:29:19.541Z,131.75
2023-05-14T01:31:50.078Z,138.05
2023-05-14T01:34:21.140Z,139.88
2023-05-14T01:36:49.099Z,131.07
2023-05-14T01:39:17.635Z,125.78
2023-05-14T01:41:45.497Z,128.30
2023-05-14T01:44:12.693Z,130.30
2023-05-14T01:46:39.852Z,128.75
2023-05-14T01:49:06.790Z,127.82
2023-05-14T01:51:34.012Z,139.95
2023-05-14T01:54:00.981Z,137.35
2023-05-14T01:56:27.992Z,139.40
2023-05-14T01:58:56.740Z,143.30
2023-05-14T02:01:23.793Z,131.10
2023-05-14T02:03:51.298Z,136.95
2023-05-14T02:06:18.182Z,135.45
2023-05-14T02:08:45.349Z,136.68
2023-05-14T02:11:12.282Z,136.30
2023-05-14T02:13:39.378Z,130.20
2023-05-14T02:16:06.648Z,145.88
2023-05-14T02:18:33.614Z,137.05
2023-05-14T02:21:00.642Z,134.00
2023-05-14T02:23:37.930Z,139.38
2023-05-14T02:26:10.039Z,141.57
2023-05-14T02:28:36.827Z,135.15
2023-05-14T02:31:03.729Z,135.32
2023-05-14T02:33:32.763Z,138.80
2023-05-14T02:35:59.694Z,137.60
2023-05-14T02:38:26.791Z,140.15
2023-05-14T02:40:53.798Z,135.48
2023-05-14T02:43:20.750Z,148.52
2023-05-14T02:45:47.762Z,136.70
2023-05-14T02:48:14.856Z,142.18
2023-05-14T02:50:41.857Z,147.00
2023-05-14T02:53:09.037Z,138.82
2023-05-14T02:55:36.361Z,144.52
2023-05-14T02:58:03.429Z,141.25
2023-05-14T03:00:30.217Z,153.52
2023-05-14T03:02:57.598Z,153.68
2023-05-14T03:05:25.831Z,161.82
2023-05-14T03:07:53.707Z,161.82
2023-05-14T03:10:20.852Z,159.90
2023-05-14T03:12:47.870Z,157.65
2023-05-14T03:15:14.817Z,154.77
2023-05-14T03:17:41.932Z,178.38
2023-05-14T03:20:09.196Z,168.70
2023-05-14T03:22:36.193Z,154.93
2023-05-14T03:25:03.010Z,167.63
2023-05-14T03:27:30.042Z,163.48
2023-05-14T03:29:57.125Z,169.85
2023-05-14T03:32:24.172Z,149.93
2023-05-14T03:34:53.345Z,162.02
2023-05-14T03:37:20.400Z,173.43
2023-05-14T03:39:47.334Z,162.55
2023-05-14T03:42:14.425Z,161.95
2023-05-14T03:44:41.474Z,148.70
2023-05-14T03:47:09.379Z,158.98
2023-05-14T03:49:36.341Z,168.45
2023-05-14T03:52:03.541Z,166.57
2023-05-14T03:54:30.430Z,164.85
2023-05-14T03:56:57.473Z,172.80
2023-05-14T03:59:24.619Z,150.07
2023-05-14T04:01:51.556Z,148.45
2023-05-14T04:04:18.730Z,160.38
2023-05-14T04:06:45.674Z,158.55
2023-05-14T04:09:12.855Z,157.35
2023-05-14T04:11:39.876Z,155.38
2023-05-14T04:14:07.033Z,163.45
2023-05-14T04:16:33.973Z,164.95
2023-05-14T04:19:03.753Z,154.35
2023-05-14T04:23:57.488Z,164.63
2023-05-14T04:26:25.417Z,161.00
2023-05-14T04:28:52.864Z,172.43
2023-05-14T04:31:19.867Z,146.93
2023-05-14T04:33:46.985Z,148.18
2023-05-14T04:36:14.223Z,139.57
2023-05-14T04:38:41.483Z,146.65
2023-05-14T04:41:08.478Z,151.02
2023-05-14T04:43:35.574Z,139.93
2023-05-14T04:46:02.935Z,132.15
2023-05-14T04:48:30.046Z,129.93
2023-05-14T04:50:57.030Z,117.65
2023-05-14T04:53:24.943Z,119.60
2023-05-14T04:55:51.997Z,108.90
2023-05-14T04:58:18.990Z,107.18
2023-05-14T05:00:45.715Z,115.72
2023-05-14T05:03:12.599Z,110.20
2023-05-14T05:05:39.773Z,115.80
2023-05-14T05:08:06.852Z,122.85
2023-05-14T05:10:33.916Z,125.78
2023-05-14T05:13:00.943Z,174.60
2023-05-14T05:15:27.933Z,156.88
2023-05-14T05:17:55.102Z,159.98
2023-05-14T05:20:22.188Z,149.40
2023-05-14T05:22:49.087Z,158.93
2023-05-14T05:25:16.198Z,161.40
2023-05-14T05:27:43.238Z,168.35
2023-05-14T05:30:10.660Z,159.40
2023-05-14T05:32:38.136Z,168.32
2023-05-14T05:35:05.632Z,169.75
2023-05-14T05:37:33.101Z,165.90
2023-05-14T05:40:00.237Z,166.13
2023-05-14T05:42:27.183Z,153.40
2023-05-14T05:44:54.259Z,171.02
2023-05-14T05:47:21.324Z,167.93
2023-05-14T05:49:48.290Z,159.57
2023-05-14T05:52:15.297Z,164.55
2023-05-14T05:54:42.349Z,155.07
2023-05-14T05:57:09.493Z,148.75
2023-05-14T05:59:36.232Z,131.02
2023-05-14T06:02:03.456Z,145.50
2023-05-14T06:04:30.484Z,140.18
2023-05-14T06:06:57.593Z,134.50
2023-05-14T06:09:24.456Z,130.63
2023-05-14T06:11:51.504Z,144.32
2023-05-14T06:14:18.604Z,130.38
2023-05-14T06:16:45.679Z,145.55
2023-05-14T06:19:13.893Z,137.20
2023-05-14T06:21:41.002Z,119.32
2023-05-14T06:24:08.172Z,110.47
2023-05-14T06:26:35.114Z,125.35
2023-05-14T06:29:02.101Z,124.30
2023-05-14T06:31:28.968Z,122.07
2023-05-14T06:33:55.973Z,108.70
2023-05-14T06:36:22.841Z,115.28
2023-05-14T06:38:49.846Z,114.10
2023-05-14T06:41:17.123Z,110.60
2023-05-14T06:43:43.957Z,113.22
2023-05-14T06:46:11.028Z,114.40
2023-05-14T06:48:38.111Z,110.13
2023-05-14T06:51:05.129Z,114.18
2023-05-14T06:53:32.217Z,119.20
2023-05-14T06:56:00.042Z,123.88
2023-05-14T06:58:27.062Z,117.40
2023-05-14T07:00:53.848Z,115.35
2023-05-14T07:03:22.819Z,108.38
2023-05-14T07:05:50.005Z,106.53
2023-05-14T07:08:18.256Z,118.40
2023-05-14T07:10:45.289Z,97.47
2023-05-14T07:13:12.251Z,101.60
2023-05-14T07:15:39.465Z,99.38
2023-05-14T07:18:06.367Z,94.57
2023-05-14T07:20:33.691Z,93.30
2023-05-14T07:23:00.872Z,110.78
2023-05-14T07:25:30.753Z,99.60
2023-05-14T07:27:57.760Z,113.60
2023-05-14T07:30:24.852Z,114.82
2023-05-14T07:32:52.006Z,111.82
2023-05-14T07:35:18.937Z,97.93
2023-05-14T07:37:46.122Z,88.90
2023-05-14T07:40:13.093Z,86.82
2023-05-14T07:42:40.116Z,83.32
2023-05-14T07:45:07.661Z,84.05
2023-05-14T07:47:34.688Z,85.63
2023-05-14T07:50:01.753Z,91.90
2023-05-14T07:52:28.834Z,86.68
2023-05-14T07:54:55.820Z,88.22
2023-05-14T07:57:22.808Z,92.95
2023-05-14T07:59:49.891Z,88.95
2023-05-14T08:02:17.833Z,82.53
2023-05-14T08:04:45.567Z,83.63
2023-05-14T08:07:13.556Z,91.82
2023-05-14T08:09:40.652Z,91.40
2023-05-14T08:12:08.350Z,133.57
2023-05-14T08:14:35.551Z,109.80
2023-05-14T08:17:04.100Z,86.28
2023-05-14T08:19:30.849Z,98.63
2023-05-14T08:21:57.746Z,105.07
2023-05-14T08:24:24.858Z,107.10
2023-05-14T08:26:53.044Z,96.30
2023-05-14T08:29:20.644Z,96.72
2023-05-14T08:31:48.423Z,95.38
2023-05-14T08:34:16.469Z,95.38
2023-05-14T08:36:43.345Z,105.80
2023-05-14T08:39:11.324Z,89.28
2023-05-14T08:41:39.654Z,74.65
2023-05-14T08:44:12.688Z,84.68
2023-05-14T08:46:41.317Z,78.03
2023-05-14T08:49:20.273Z,79.55
2023-05-14T08:51:48.547Z,86.72
2023-05-14T08:54:17.808Z,82.93
2023-05-14T08:56:50.465Z,70.95
2023-05-14T08:59:19.240Z,75.28
2023-05-14T09:01:48.494Z,82.07
2023-05-14T09:04:23.822Z,80.82
2023-05-14T09:06:55.585Z,84.47
2023-05-14T09:09:23.460Z,77.63
2023-05-14T09:11:52.699Z,83.43
2023-05-14T09:14:20.546Z,83.82
2023-05-14T09:16:49.675Z,94.35
2023-05-14T09:19:19.215Z,88.35
2023-05-14T09:24:21.993Z,88.22
2023-05-14T09:26:57.426Z,86.38
2023-05-14T09:29:30.135Z,78.43
2023-05-14T09:32:01.348Z,78.38
2023-05-14T09:34:31.472Z,79.45
2023-05-14T09:37:01.565Z,73.75
2023-05-14T09:39:29.836Z,67.85
2023-05-14T09:41:57.350Z,68.32
2023-05-14T09:44:25.033Z,59.47
2023-05-14T09:46:53.611Z,185.00
2023-05-14T09:49:21.346Z,69.85
2023-05-14T09:51:51.338Z,71.35
2023-05-14T09:54:18.594Z,64.90
2023-05-14T09:56:45.789Z,91.60
2023-05-14T09:59:12.794Z,66.65
2023-05-14T10:01:42.891Z,62.47
2023-05-14T10:04:12.638Z,60.65
2023-05-14T10:09:13.642Z,69.10
2023-05-14T10:11:44.298Z,67.25
2023-05-14T10:14:20.983Z,74.60
2023-05-14T10:16:50.479Z,64.20
2023-05-14T10:19:19.900Z,59.42
2023-05-14T10:21:53.061Z,60.08
2023-05-14T10:24:22.146Z,52.00
2023-05-14T10:26:49.338Z,51.63
2023-05-14T10:29:16.280Z,59.17
2023-05-14T10:31:54.071Z,64.60
2023-05-14T10:34:42.496Z,59.20
2023-05-14T10:37:30.104Z,61.00
2023-05-14T10:40:06.098Z,59.35
2023-05-14T10:42:37.506Z,64.07
2023-05-14T10:45:08.225Z,96.35
2023-05-14T10:47:40.408Z,69.28
2023-05-14T10:50:11.928Z,68.72
2023-05-14T10:52:44.434Z,76.22
2023-05-14T10:55:14.401Z,64.03
2023-05-14T10:57:45.385Z,167.57
2023-05-14T11:00:14.168Z,59.38
2023-05-14T11:02:45.709Z,60.05
2023-05-14T11:05:17.704Z,52.33
2023-05-14T11:07:50.030Z,51.45
2023-05-14T11:10:19.283Z,49.13
2023-05-14T11:12:48.033Z,46.67
2023-05-14T11:15:17.011Z,45.33
2023-05-14T11:17:45.513Z,42.63
2023-05-14T11:20:14.456Z,44.33
2023-05-14T11:22:43.390Z,45.20
2023-05-14T11:25:11.248Z,42.08
2023-05-14T11:27:39.324Z,36.97
2023-05-14T11:30:13.473Z,36.70
2023-05-14T11:32:41.338Z,29.15
2023-05-14T11:35:08.654Z,32.78
2023-05-14T11:37:35.645Z,34.95
2023-05-14T11:40:02.965Z,32.95
2023-05-14T11:42:29.979Z,34.28
2023-05-14T11:44:57.169Z,28.52
2023-05-14T11:47:24.052Z,29.20
2023-05-14T11:49:51.173Z,26.17
2023-05-14T11:52:19.628Z,32.90
2023-05-14T11:54:49.748Z,33.78
2023-05-14T11:57:19.560Z,42.85
2023-05-14T11:59:56.815Z,37.10
2023-05-14T12:02:29.123Z,40.75
2023-05-14T12:04:57.371Z,35.97
2023-05-14T12:07:24.140Z,33.92
2023-05-14T12:09:51.528Z,35.45
2023-05-14T12:12:21.264Z,31.92
2023-05-14T12:14:49.902Z,33.40
2023-05-14T12:17:22.130Z,30.67
2023-05-14T12:19:51.464Z,32.88
2023-05-14T12:22:23.033Z,31.83
2023-05-14T12:24:54.825Z,24.42
2023-05-14T12:27:28.668Z,25.30
2023-05-14T12:30:19.987Z,24.10
2023-05-14T12:32:52.665Z,25.75
2023-05-14T12:37:48.119Z,23.23
2023-05-14T12:40:15.331Z,24.80
2023-05-14T12:42:44.578Z,26.10
2023-05-14T12:45:15.108Z,25.38
2023-05-14T12:47:42.329Z,22.13
2023-05-14T12:50:11.962Z,25.73
2023-05-14T12:52:39.960Z,24.58
2023-05-14T12:55:10.663Z,27.33
2023-05-14T12:57:39.685Z,28.73
2023-05-14T13:00:08.499Z,29.88
2023-05-14T13:02:42.231Z,27.77
2023-05-14T13:05:10.763Z,26.88
2023-05-14T13:07:38.041Z,20.17
2023-05-14T13:10:06.718Z,25.10
2023-05-14T13:12:34.125Z,22.20
2023-05-14T13:15:00.945Z,22.77
2023-05-14T13:17:28.017Z,21.00
2023-05-14T13:19:55.031Z,24.25
2023-05-14T13:22:22.048Z,20.83
2023-05-14T13:24:49.083Z,20.92
2023-05-14T13:27:16.183Z,23.48
2023-05-14T13:29:43.152Z,20.40
2023-05-14T13:32:11.111Z,20.92
2023-05-14T13:34:38.128Z,28.08
2023-05-14T13:37:05.124Z,21.70
2023-05-14T13:39:32.218Z,20.30
2023-05-14T13:41:59.278Z,24.73
2023-05-14T13:44:26.872Z,20.40
2023-05-14T13:46:53.956Z,21.83
2023-05-14T13:49:21.137Z,18.92
2023-05-14T13:51:48.310Z,19.25
2023-05-14T13:54:15.330Z,19.80
2023-05-14T13:56:42.329Z,17.13
2023-05-14T13:59:09.492Z,20.63
2023-05-14T14:01:36.629Z,366.35
2023-05-14T14:04:03.560Z,19.33
2023-05-14T14:06:32.606Z,19.75
2023-05-14T14:08:59.628Z,22.63
2023-05-14T14:11:27.205Z,21.50
2023-05-14T14:13:54.461Z,26.10
2023-05-14T14:16:21.269Z,29.25
2023-05-14T14:18:48.270Z,18.95
2023-05-14T14:21:18.009Z,16.85
2023-05-14T14:23:48.555Z,20.92
2023-05-14T14:26:15.773Z,26.90
2023-05-14T14:28:42.656Z,18.02
2023-05-14T14:31:09.402Z,20.42
2023-05-14T14:33:36.283Z,19.50
2023-05-14T14:36:03.448Z,19.17
2023-05-14T14:38:30.432Z,21.17
2023-05-14T14:40:58.033Z,19.38
2023-05-14T14:43:24.982Z,26.60
2023-05-14T14:45:52.071Z,24.83
2023-05-14T14:48:28.447Z,18.98
2023-05-14T14:50:55.820Z,18.55
2023-05-14T14:53:23.779Z,17.95
2023-05-14T14:55:51.973Z,19.33
2023-05-14T14:58:20.405Z,23.70
2023-05-14T15:00:48.018Z,15.55
2023-05-14T15:03:15.789Z,19.42
2023-05-14T15:05:43.058Z,22.17
2023-05-14T15:08:11.107Z,18.20
2023-05-14T15:10:38.495Z,21.90
2023-05-14T15:13:06.941Z,17.45
2023-05-14T15:15:35.708Z,12.50
2023-05-14T15:18:03.548Z,19.48
2023-05-14T15:20:30.820Z,13.70
2023-05-14T15:22:57.980Z,12.88
2023-05-14T15:25:25.452Z,13.88
2023-05-14T15:27:58.306Z,11.00
2023-05-14T15:30:25.079Z,14.57
2023-05-14T15:32:52.318Z,9.27
2023-05-14T15:35:20.262Z,15.18
2023-05-14T15:37:50.249Z,10.57
2023-05-14T15:40:19.344Z,11.98
2023-05-14T15:42:46.974Z,9.30
2023-05-14T15:45:14.675Z,13.52
2023-05-14T15:47:41.998Z,9.68
2023-05-14T15:50:09.404Z,12.63
2023-05-14T15:52:37.459Z,11.98
2023-05-14T15:55:06.063Z,11.57
2023-05-14T15:57:34.517Z,17.90
2023-05-14T16:00:10.313Z,12.27
2023-05-14T16:02:39.064Z,16.98
2023-05-14T16:05:08.524Z,19.25
2023-05-14T16:07:38.717Z,16.13
2023-05-14T16:10:06.553Z,10.27
2023-05-14T16:12:34.828Z,12.57
2023-05-14T16:15:01.642Z,19.13
2023-05-14T16:17:30.399Z,16.15
2023-05-14T16:20:00.940Z,14.63
2023-05-14T16:22:29.360Z,16.95
2023-05-14T16:24:56.331Z,13.20
2023-05-14T16:27:23.505Z,11.90
2023-05-14T16:29:50.601Z,24.23
2023-05-14T16:32:17.787Z,15.43
2023-05-14T16:34:49.663Z,10.40
2023-05-14T16:37:17.536Z,12.43
2023-05-14T16:39:44.461Z,12.43
2023-05-14T16:42:11.405Z,9.52
2023-05-14T16:44:38.905Z,10.05
2023-05-14T16:47:05.939Z,9.10
2023-05-14T16:49:32.822Z,10.07
2023-05-14T16:52:00.811Z,7.57
2023-05-14T16:54:27.861Z,12.45
2023-05-14T16:56:54.952Z,8.38
2023-05-14T16:59:21.944Z,14.80
2023-05-14T17:01:49.169Z,10.32
2023-05-14T17:04:16.287Z,12.90
2023-05-14T17:06:43.152Z,10.13
2023-05-14T17:09:10.153Z,17.45
2023-05-14T17:11:36.980Z,10.43
2023-05-14T17:14:03.850Z,9.15
2023-05-14T17:16:30.995Z,8.68
2023-05-14T17:18:58.042Z,11.20
2023-05-14T17:21:25.039Z,8.25
2023-05-14T17:23:52.823Z,8.95
2023-05-14T17:26:21.163Z,8.38
2023-05-14T17:28:48.199Z,11.48
2023-05-14T17:31:15.292Z,11.48
2023-05-14T17:33:42.316Z,9.40
2023-05-14T17:36:09.376Z,13.70
2023-05-14T17:38:36.475Z,10.23
2023-05-14T17:41:03.513Z,13.65
2023-05-14T17:43:32.585Z,16.92
2023-05-14T17:45:59.681Z,12.43
2023-05-14T17:48:26.641Z,14.50
2023-05-14T17:50:53.990Z,12.20
2023-05-14T17:53:21.903Z,17.60
2023-05-14T17:55:50.112Z,12.15
2023-05-14T17:58:17.370Z,14.63
2023-05-14T18:00:44.192Z,11.63
2023-05-14T18:03:14.148Z,12.73
2023-05-14T18:05:41.388Z,12.70
2023-05-14T18:08:09.559Z,15.32
2023-05-14T18:10:37.540Z,13.38
2023-05-14T18:13:05.361Z,12.48
2023-05-14T18:15:32.481Z,11.43
2023-05-14T18:17:59.719Z,10.52
2023-05-14T18:20:26.869Z,13.63
2023-05-14T18:22:53.922Z,12.18
2023-05-14T18:25:20.964Z,14.13
2023-05-14T18:27:48.864Z,14.43
2023-05-14T18:30:16.127Z,11.05
2023-05-14T18:32:44.699Z,11.63
2023-05-14T18:35:13.759Z,13.20
2023-05-14T18:37:40.873Z,11.13
2023-05-14T18:40:09.683Z,13.18
2023-05-14T18:42:42.668Z,10.60
2023-05-14T18:45:11.446Z,13.02
2023-05-14T18:47:39.652Z,13.98
2023-05-14T18:50:08.150Z,12.25
2023-05-14T18:52:35.509Z,11.25
2023-05-14T18:55:02.306Z,16.55
2023-05-14T18:57:32.167Z,14.98
2023-05-14T19:00:01.947Z,14.77
2023-05-14T19:02:29.000Z,18.92
2023-05-14T19:04:56.064Z,13.88
2023-05-14T19:07:24.120Z,18.45
2023-05-14T19:09:53.004Z,13.38
2023-05-14T19:12:19.852Z,19.33
2023-05-14T19:14:46.869Z,14.00
2023-05-14T19:17:14.003Z,14.90
2023-05-14T19:19:41.096Z,13.85
2023-05-14T19:22:08.923Z,15.85
2023-05-14T19:24:37.769Z,15.05
2023-05-14T19:27:04.764Z,14.07
2023-05-14T19:29:34.589Z,16.77
